Time;durP1;ratioP1;P1;durP2;ratioP2;P2;SDS_P1;SDS_P2;PMS_P1;PMS_P2;Temp;Humidity;BMP_temperature;BMP_pressure;BME280_temperature;BME280_humidity;BME280_pressure;Samples;Min_cycle;Max_cycle;Signal;HPM_P1;HPM_P2
2023/09/10 00:00:41;;;;;;;;;;;;;;;;;;5043589;28;20091;-76
2023/09/10 00:03:06;;;;;;;;;;;;;;;;;;5055574;28;19921;-76
2023/09/10 00:05:32;;;;;;;;;;;;;;;;;;5038983;28;20308;-76
2023/09/10 00:07:57;;;;;;;;;;;;;;;;;;5053753;28;19987;-77
2023/09/10 00:10:22;;;;;;;;;;;;;;;;;;5023210;28;19933;-77
2023/09/10 00:12:48;;;;;;;;;;;;;;;;;;5020169;28;19964;-76
2023/09/10 00:15:13;;;;;;;;;;;;;;;;;;5055454;28;19921;-76
2023/09/10 00:17:38;;;;;;;;;;;;;;;;;;5018779;28;19921;-76
2023/09/10 00:20:10;;;;;;;;;;;;;;;;;;5054132;28;19932;-76
2023/09/10 00:22:35;;;;;;;;;;;;;;;;;;5024696;28;20334;-76
2023/09/10 00:25:01;;;;;;;;;;;;;;;;;;5037504;28;19921;-76
2023/09/10 00:27:28;;;;;;;;;;;;;;;;;;5055411;28;20008;-76
2023/09/10 00:29:53;;;;;;;;;;;;;;;;;;5036561;28;19921;-76
2023/09/10 00:32:18;;;;;;;;;;;;;;;;;;5037133;28;19921;-76
2023/09/10 00:34:44;;;;;;;;;;;;;;;;;;5053028;28;20369;-78
2023/09/10 00:37:09;;;;;;;;;;;;;;;;;;5017427;28;20331;-77
2023/09/10 00:39:34;;;;;;;;;;;;;;;;;;5051936;28;20672;-77
2023/09/10 00:42:02;;;;;;;;;;;;;;;;;;5052551;28;20389;-76
2023/09/10 00:44:33;;;;;;;;;;;;;;;;;;5053727;28;20385;-77
2023/09/10 00:47:01;;;;;;;;;;;;;;;;;;5034699;28;19921;-77
2023/09/10 00:49:27;;;;;;;;;;;;;;;;;;5053125;28;19921;-76
2023/09/10 00:51:52;;;;;;;;;;;;;;;;;;5031067;28;19979;-77
2023/09/10 00:54:17;;;;;;;;;;;;;;;;;;5052943;28;19925;-77
2023/09/10 00:56:43;;;;;;;;;;;;;;;;;;5035368;28;19933;-76
2023/09/10 00:59:10;;;;;;;;;;;;;;;;;;4992338;28;19921;-76
2023/09/10 01:01:35;;;;;;;;;;;;;;;;;;5017311;28;19968;-76
2023/09/10 01:04:01;;;;;;;;;;;;;;;;;;5014669;28;19917;-77
2023/09/10 01:06:26;;;;;;;;;;;;;;;;;;5005566;28;19964;-77
2023/09/10 01:08:51;;;;;;;;;;;;;;;;;;5002458;28;19934;-77
2023/09/10 01:11:16;;;;;;;;;;;;;;;;;;5023465;28;19917;-76
2023/09/10 01:13:42;;;;;;;;;;;;;;;;;;5032764;28;20361;-77
2023/09/10 01:16:13;;;;;;;;;;;;;;;;;;5014475;28;19923;-77
2023/09/10 01:18:44;;;;;;;;;;;;;;;;;;5029618;28;19945;-76
2023/09/10 01:21:10;;;;;;;;;;;;;;;;;;5007202;28;19975;-78
2023/09/10 01:23:47;;;;;;;;;;;;;;;;;;5019346;28;19925;-77
2023/09/10 01:26:12;;;;;;;;;;;;;;;;;;5016316;28;19976;-77
2023/09/10 01:28:38;;;;;;;;;;;;;;;;;;5021934;28;20426;-77
2023/09/10 01:31:03;;;;;;;;;;;;;;;;;;5002524;28;19922;-77
2023/09/10 01:33:30;;;;;;;;;;;;;;;;;;5025713;28;20011;-78
2023/09/10 01:36:02;;;;;;;;;;;;;;;;;;5047274;28;19922;-78
2023/09/10 01:38:46;;;;;;;;;;;;;;;;;;5022455;28;20307;-78
2023/09/10 01:41:15;;;;;;;;;;;;;;;;;;5016070;28;19941;-77
2023/09/10 01:43:40;;;;;;;;;;;;;;;;;;5019890;28;19928;-77
2023/09/10 01:46:06;;;;;;;;;;;;;;;;;;5038779;28;19921;-78
2023/09/10 01:48:31;;;;;;;;;;;;;;;;;;5035074;28;19917;-78
2023/09/10 01:50:56;;;;;;;;;;;;;;;;;;5037263;28;20003;-77
2023/09/10 01:53:22;;;;;;;;;;;;;;;;;;5040373;28;19936;-78
2023/09/10 01:55:48;;;;;;;;;;;;;;;;;;5022085;28;19924;-78
2023/09/10 01:58:13;;;;;;;;;;;;;;;;;;5029415;28;20370;-78
2023/09/10 02:00:39;;;;;;;;;;;;;;;;;;5030454;28;19928;-78
2023/09/10 02:03:04;;;;;;;;;;;;;;;;;;5006363;28;19925;-78
2023/09/10 02:05:29;;;;;;;;;;;;;;;;;;5015468;28;19921;-78
2023/09/10 02:08:01;;;;;;;;;;;;;;;;;;5029899;28;19924;-77
2023/09/10 02:10:27;;;;;;;;;;;;;;;;;;5036868;28;20296;-78
2023/09/10 02:12:52;;;;;;;;;;;;;;;;;;5050146;28;19933;-77
2023/09/10 02:15:18;;;;;;;;;;;;;;;;;;5015774;28;20678;-78
2023/09/10 02:17:43;;;;;;;;;;;;;;;;;;5049645;28;19999;-78
2023/09/10 02:20:11;;;;;;;;;;;;;;;;;;5041475;28;19916;-77
2023/09/10 02:22:37;;;;;;;;;;;;;;;;;;5046864;28;20408;-78
2023/09/10 02:25:03;;;;;;;;;;;;;;;;;;5016510;28;20292;-77
2023/09/10 02:27:29;;;;;;;;;;;;;;;;;;5017494;28;19944;-77
2023/09/10 02:29:54;;;;;;;;;;;;;;;;;;5016596;28;19917;-76
2023/09/10 02:32:23;;;;;;;;;;;;;;;;;;5048290;28;19928;-77
2023/09/10 02:34:51;;;;;;;;;;;;;;;;;;5017674;28;20313;-78
2023/09/10 02:37:16;;;;;;;;;;;;;;;;;;5015534;28;19928;-79
2023/09/10 02:39:42;;;;;;;;;;;;;;;;;;5021998;28;20373;-78
2023/09/10 02:42:07;;;;;;;;;;;;;;;;;;5028120;28;19987;-78
2023/09/10 02:44:32;;;;;;;;;;;;;;;;;;5029693;28;19929;-77
2023/09/10 02:46:58;;;;;;;;;;;;;;;;;;5016010;28;19930;-77
2023/09/10 02:49:24;;;;;;;;;;;;;;;;;;5027640;28;19921;-78
2023/09/10 02:51:50;;;;;;;;;;;;;;;;;;5015916;28;19917;-78
2023/09/10 02:54:15;;;;;;;;;;;;;;;;;;5020315;28;19922;-80
2023/09/10 02:56:40;;;;;;;;;;;;;;;;;;5028625;28;20003;-78
2023/09/10 02:59:06;;;;;;;;;;;;;;;;;;5012788;28;19964;-78
2023/09/10 03:01:31;;;;;;;;;;;;;;;;;;5046428;28;19920;-79
2023/09/10 03:03:56;;;;;;;;;;;;;;;;;;5044042;28;19928;-78
2023/09/10 03:06:21;;;;;;;;;;;;;;;;;;5023042;28;20381;-78
2023/09/10 03:08:46;;;;;;;;;;;;;;;;;;5021479;28;20416;-79
2023/09/10 03:11:12;;;;;;;;;;;;;;;;;;5056056;28;20269;-77
2023/09/10 03:13:37;;;;;;;;;;;;;;;;;;5056186;28;20012;-77
2023/09/10 03:16:02;;;;;;;;;;;;;;;;;;5039436;28;20364;-78
2023/09/10 03:18:28;;;;;;;;;;;;;;;;;;5032937;28;19921;-78
2023/09/10 03:20:54;;;;;;;;;;;;;;;;;;5037249;28;19921;-78
2023/09/10 03:23:19;;;;;;;;;;;;;;;;;;5015607;28;19921;-78
2023/09/10 03:25:45;;;;;;;;;;;;;;;;;;5036858;28;19944;-78
2023/09/10 03:28:11;;;;;;;;;;;;;;;;;;5014601;28;19917;-78
2023/09/10 03:30:36;;;;;;;;;;;;;;;;;;5022939;28;19921;-78
2023/09/10 03:33:04;;;;;;;;;;;;;;;;;;5015342;28;20008;-77
2023/09/10 03:35:29;;;;;;;;;;;;;;;;;;5022492;28;19963;-78
2023/09/10 03:37:55;;;;;;;;;;;;;;;;;;5028684;28;19959;-77
2023/09/10 03:40:20;;;;;;;;;;;;;;;;;;5004141;28;19921;-78
2023/09/10 03:42:45;;;;;;;;;;;;;;;;;;5005774;28;19955;-81
2023/09/10 03:45:11;;;;;;;;;;;;;;;;;;5042131;28;19917;-78
2023/09/10 03:47:36;;;;;;;;;;;;;;;;;;5012139;28;20127;-78
2023/09/10 03:50:02;;;;;;;;;;;;;;;;;;5012880;28;20323;-79
2023/09/10 03:52:28;;;;;;;;;;;;;;;;;;5012905;28;19921;-78
2023/09/10 03:54:53;;;;;;;;;;;;;;;;;;5045050;28;20288;-77
2023/09/10 03:57:21;;;;;;;;;;;;;;;;;;5015587;28;19927;-78
2023/09/10 03:59:46;;;;;;;;;;;;;;;;;;5000413;28;19922;-79
2023/09/10 04:02:11;;;;;;;;;;;;;;;;;;5040735;28;20280;-78
2023/09/10 04:04:37;;;;;;;;;;;;;;;;;;5056185;28;19929;-79
2023/09/10 04:07:02;;;;;;;;;;;;;;;;;;5015589;28;19974;-77
2023/09/10 04:09:30;;;;;;;;;;;;;;;;;;5003640;28;19929;-77
2023/09/10 04:11:57;;;;;;;;;;;;;;;;;;5021928;28;20372;-77
2023/09/10 04:14:22;;;;;;;;;;;;;;;;;;5010459;28;19933;-77
2023/09/10 04:16:48;;;;;;;;;;;;;;;;;;5043242;28;20033;-77
2023/09/10 04:19:13;;;;;;;;;;;;;;;;;;5053637;28;19921;-77
2023/09/10 04:21:38;;;;;;;;;;;;;;;;;;5045854;28;20578;-78
2023/09/10 04:24:05;;;;;;;;;;;;;;;;;;5053264;28;19921;-78
2023/09/10 04:26:30;;;;;;;;;;;;;;;;;;5043805;28;19916;-77
2023/09/10 04:28:55;;;;;;;;;;;;;;;;;;5007419;28;19917;-78
2023/09/10 04:31:21;;;;;;;;;;;;;;;;;;5019461;28;20568;-77
2023/09/10 04:33:46;;;;;;;;;;;;;;;;;;5053411;28;19921;-78
2023/09/10 04:36:12;;;;;;;;;;;;;;;;;;5053038;28;19927;-77
2023/09/10 04:38:37;;;;;;;;;;;;;;;;;;5007495;28;20296;-77
2023/09/10 04:41:05;;;;;;;;;;;;;;;;;;5045816;28;19952;-77
2023/09/10 04:43:31;;;;;;;;;;;;;;;;;;5057502;28;19927;-78
2023/09/10 04:45:56;;;;;;;;;;;;;;;;;;5052376;28;19921;-77
2023/09/10 04:48:21;;;;;;;;;;;;;;;;;;5043710;28;20016;-77
2023/09/10 04:50:47;;;;;;;;;;;;;;;;;;5051674;28;19917;-77
2023/09/10 04:53:13;;;;;;;;;;;;;;;;;;5043118;28;19986;-77
2023/09/10 04:55:38;;;;;;;;;;;;;;;;;;5035688;28;20568;-78
2023/09/10 04:58:04;;;;;;;;;;;;;;;;;;5041160;28;19917;-79
2023/09/10 05:00:30;;;;;;;;;;;;;;;;;;5039806;28;19961;-78
2023/09/10 05:02:55;;;;;;;;;;;;;;;;;;5052991;28;19921;-77
2023/09/10 05:05:20;;;;;;;;;;;;;;;;;;5050505;28;19989;-78
2023/09/10 05:07:49;;;;;;;;;;;;;;;;;;5054147;28;19917;-78
2023/09/10 05:10:14;;;;;;;;;;;;;;;;;;5054719;28;19928;-77
2023/09/10 05:12:39;;;;;;;;;;;;;;;;;;5011992;28;19932;-77
2023/09/10 05:15:05;;;;;;;;;;;;;;;;;;4992400;28;19948;-79
2023/09/10 05:17:30;;;;;;;;;;;;;;;;;;5017506;28;20003;-78
2023/09/10 05:19:56;;;;;;;;;;;;;;;;;;5023260;28;19974;-77
2023/09/10 05:22:21;;;;;;;;;;;;;;;;;;5028868;28;19913;-78
2023/09/10 05:24:46;;;;;;;;;;;;;;;;;;5035182;28;19917;-79
2023/09/10 05:27:11;;;;;;;;;;;;;;;;;;5034406;28;20223;-78
2023/09/10 05:29:40;;;;;;;;;;;;;;;;;;5049165;28;19922;-77
2023/09/10 05:32:05;;;;;;;;;;;;;;;;;;5038106;28;19947;-77
2023/09/10 05:34:30;;;;;;;;;;;;;;;;;;5050526;28;19925;-78
2023/09/10 05:36:56;;;;;;;;;;;;;;;;;;5010106;28;19924;-77
2023/09/10 05:39:23;;;;;;;;;;;;;;;;;;5005495;28;19925;-78
2023/09/10 05:41:48;;;;;;;;;;;;;;;;;;5033205;28;19920;-77
2023/09/10 05:44:14;;;;;;;;;;;;;;;;;;5028578;28;19966;-77
2023/09/10 05:46:39;;;;;;;;;;;;;;;;;;5041125;28;20340;-78
2023/09/10 05:49:05;;;;;;;;;;;;;;;;;;5031428;28;19925;-77
2023/09/10 05:51:30;;;;;;;;;;;;;;;;;;5049678;28;19921;-77
2023/09/10 05:53:55;;;;;;;;;;;;;;;;;;5016340;28;19929;-78
2023/09/10 05:56:21;;;;;;;;;;;;;;;;;;5004066;28;19927;-77
2023/09/10 05:58:46;;;;;;;;;;;;;;;;;;5040655;28;20331;-77
2023/09/10 06:01:11;;;;;;;;;;;;;;;;;;5038562;28;19964;-78
2023/09/10 06:03:39;;;;;;;;;;;;;;;;;;5026844;28;19921;-78
2023/09/10 06:06:04;;;;;;;;;;;;;;;;;;5052066;28;20042;-78
2023/09/10 06:08:31;;;;;;;;;;;;;;;;;;5041268;28;20460;-78
2023/09/10 06:10:56;;;;;;;;;;;;;;;;;;5043652;28;19924;-78
2023/09/10 06:13:24;;;;;;;;;;;;;;;;;;5051624;28;20309;-77
2023/09/10 06:15:50;;;;;;;;;;;;;;;;;;5029835;28;19944;-78
2023/09/10 06:18:15;;;;;;;;;;;;;;;;;;5051760;28;20368;-78
2023/09/10 06:20:40;;;;;;;;;;;;;;;;;;5035279;28;19921;-78
2023/09/10 06:23:06;;;;;;;;;;;;;;;;;;5044207;28;19928;-76
2023/09/10 06:25:32;;;;;;;;;;;;;;;;;;5044007;28;19925;-77
2023/09/10 06:27:57;;;;;;;;;;;;;;;;;;5040665;28;20922;-76
2023/09/10 06:33:08;;;;;;;;;;;;;;;;;;5024398;28;19922;-77
2023/09/10 06:35:34;;;;;;;;;;;;;;;;;;5023845;28;20505;-77
2023/09/10 06:37:59;;;;;;;;;;;;;;;;;;5056721;28;19974;-76
2023/09/10 06:40:24;;;;;;;;;;;;;;;;;;5014175;28;19917;-77
2023/09/10 06:42:50;;;;;;;;;;;;;;;;;;5043815;28;19942;-76
2023/09/10 06:45:17;;;;;;;;;;;;;;;;;;5041601;28;19917;-77
2023/09/10 06:47:43;;;;;;;;;;;;;;;;;;5016646;28;20003;-76
2023/09/10 06:50:08;;;;;;;;;;;;;;;;;;5033050;28;19917;-77
2023/09/10 06:52:33;;;;;;;;;;;;;;;;;;5041312;28;19917;-77
2023/09/10 06:55:03;;;;;;;;;;;;;;;;;;5025624;28;20342;-77
2023/09/10 06:57:30;;;;;;;;;;;;;;;;;;5017540;28;19999;-77
2023/09/10 06:59:57;;;;;;;;;;;;;;;;;;5034397;28;20276;-77
2023/09/10 07:02:25;;;;;;;;;;;;;;;;;;5024594;28;19927;-77
2023/09/10 07:04:53;;;;;;;;;;;;;;;;;;5027372;28;19922;-77
2023/09/10 07:07:19;;;;;;;;;;;;;;;;;;5029044;28;19928;-78
2023/09/10 07:09:44;;;;;;;;;;;;;;;;;;5026829;28;19929;-78
2023/09/10 07:12:09;;;;;;;;;;;;;;;;;;5024997;28;19920;-76
2023/09/10 07:14:35;;;;;;;;;;;;;;;;;;5019447;28;19929;-77
2023/09/10 07:17:00;;;;;;;;;;;;;;;;;;5022951;28;19918;-80
2023/09/10 07:19:25;;;;;;;;;;;;;;;;;;5024868;28;19921;-77
2023/09/10 07:21:51;;;;;;;;;;;;;;;;;;5005500;28;19917;-77
2023/09/10 07:24:16;;;;;;;;;;;;;;;;;;5043733;28;19924;-78
2023/09/10 07:26:43;;;;;;;;;;;;;;;;;;5014109;28;19920;-78
2023/09/10 07:29:15;;;;;;;;;;;;;;;;;;5018266;28;19971;-77
2023/09/10 07:31:41;;;;;;;;;;;;;;;;;;5052973;28;19921;-78
2023/09/10 07:34:06;;;;;;;;;;;;;;;;;;5006047;28;20031;-78
2023/09/10 07:36:31;;;;;;;;;;;;;;;;;;5028495;28;20557;-79
2023/09/10 07:38:57;;;;;;;;;;;;;;;;;;5029846;28;19935;-78
2023/09/10 07:41:23;;;;;;;;;;;;;;;;;;5024453;28;20393;-78
2023/09/10 07:43:48;;;;;;;;;;;;;;;;;;5005699;28;19924;-78
2023/09/10 07:46:14;;;;;;;;;;;;;;;;;;5022871;28;19920;-78
2023/09/10 07:48:48;;;;;;;;;;;;;;;;;;5044339;28;19938;-79
2023/09/10 07:51:13;;;;;;;;;;;;;;;;;;5009487;28;19950;-79
2023/09/10 07:53:38;;;;;;;;;;;;;;;;;;5053750;28;19948;-79
2023/09/10 07:56:04;;;;;;;;;;;;;;;;;;5037139;28;20003;-78
2023/09/10 07:58:29;;;;;;;;;;;;;;;;;;5052988;28;19921;-78
2023/09/10 08:01:12;;;;;;;;;;;;;;;;;;5054473;28;20654;-78
2023/09/10 08:03:42;;;;;;;;;;;;;;;;;;5018451;28;19998;-79
2023/09/10 08:06:07;;;;;;;;;;;;;;;;;;5013250;28;20407;-78
2023/09/10 08:08:32;;;;;;;;;;;;;;;;;;5052440;28;19917;-79
2023/09/10 08:10:58;;;;;;;;;;;;;;;;;;5023283;28;19921;-78
2023/09/10 08:13:23;;;;;;;;;;;;;;;;;;5036969;28;20430;-78
2023/09/10 08:15:51;;;;;;;;;;;;;;;;;;5015987;28;19917;-78
2023/09/10 08:18:19;;;;;;;;;;;;;;;;;;5019537;28;19957;-79
2023/09/10 08:20:45;;;;;;;;;;;;;;;;;;4993727;28;19917;-80
2023/09/10 08:23:10;;;;;;;;;;;;;;;;;;5030466;28;19979;-79
2023/09/10 08:25:35;;;;;;;;;;;;;;;;;;5026127;28;19925;-78
2023/09/10 08:28:01;;;;;;;;;;;;;;;;;;5044314;28;19921;-79
2023/09/10 08:30:27;;;;;;;;;;;;;;;;;;5035600;28;19916;-79
2023/09/10 08:32:52;;;;;;;;;;;;;;;;;;5046036;28;19929;-79
2023/09/10 08:35:18;;;;;;;;;;;;;;;;;;5052234;28;19917;-79
2023/09/10 08:37:43;;;;;;;;;;;;;;;;;;5051895;28;19921;-78
2023/09/10 08:40:08;;;;;;;;;;;;;;;;;;5051522;28;20354;-77
2023/09/10 08:42:55;;;;;;;;;;;;;;;;;;5007323;28;20288;-78
2023/09/10 08:45:20;;;;;;;;;;;;;;;;;;5037341;28;20257;-78
2023/09/10 08:47:45;;;;;;;;;;;;;;;;;;5024274;28;19921;-79
2023/09/10 08:50:12;;;;;;;;;;;;;;;;;;5012387;28;19928;-78
2023/09/10 08:52:41;;;;;;;;;;;;;;;;;;5006463;28;20350;-79
2023/09/10 08:55:07;;;;;;;;;;;;;;;;;;5013648;28;20620;-78
2023/09/10 08:57:33;;;;;;;;;;;;;;;;;;5020954;28;19917;-78
2023/09/10 08:59:59;;;;;;;;;;;;;;;;;;5025947;28;19923;-78
2023/09/10 09:02:24;;;;;;;;;;;;;;;;;;5027186;28;19921;-78
2023/09/10 09:04:52;;;;;;;;;;;;;;;;;;5041233;28;19921;-78
2023/09/10 09:07:19;;;;;;;;;;;;;;;;;;5020788;28;19935;-79
2023/09/10 09:09:45;;;;;;;;;;;;;;;;;;5029971;28;20100;-79
2023/09/10 09:12:11;;;;;;;;;;;;;;;;;;5016029;28;20003;-77
2023/09/10 09:14:42;;;;;;;;;;;;;;;;;;5015125;28;19926;-79
2023/09/10 09:17:11;;;;;;;;;;;;;;;;;;5001271;28;20655;-82
2023/09/10 09:19:39;;;;;;;;;;;;;;;;;;5016948;28;19921;-83
2023/09/10 09:22:05;;;;;;;;;;;;;;;;;;5003423;28;19920;-82
2023/09/10 09:24:30;;;;;;;;;;;;;;;;;;5006899;28;19975;-83
2023/09/10 09:26:58;;;;;;;;;;;;;;;;;;5015101;28;19917;-83
2023/09/10 09:29:30;;;;;;;;;;;;;;;;;;5020205;28;19917;-82
2023/09/10 09:31:55;;;;;;;;;;;;;;;;;;5017148;28;19964;-81
2023/09/10 09:34:20;;;;;;;;;;;;;;;;;;5011828;28;19925;-81
2023/09/10 09:36:48;;;;;;;;;;;;;;;;;;5025436;28;19959;-83
2023/09/10 09:39:34;;;;;;;;;;;;;;;;;;5014326;28;20059;-84
2023/09/10 09:42:10;;;;;;;;;;;;;;;;;;5015266;28;20003;-84
2023/09/10 09:44:36;;;;;;;;;;;;;;;;;;5005719;28;19935;-82
2023/09/10 09:47:10;;;;;;;;;;;;;;;;;;5008730;28;19920;-82
2023/09/10 09:49:42;;;;;;;;;;;;;;;;;;5012114;28;19988;-83
2023/09/10 09:52:07;;;;;;;;;;;;;;;;;;5010848;28;19921;-82
2023/09/10 09:54:36;;;;;;;;;;;;;;;;;;5007204;28;20407;-81
2023/09/10 09:57:05;;;;;;;;;;;;;;;;;;4992150;28;19921;-82
2023/09/10 09:59:40;;;;;;;;;;;;;;;;;;5008715;28;19924;-82
2023/09/10 10:02:06;;;;;;;;;;;;;;;;;;5015350;28;20859;-85
2023/09/10 10:04:31;;;;;;;;;;;;;;;;;;5023339;28;19925;-82
2023/09/10 10:06:56;;;;;;;;;;;;;;;;;;5033942;28;19917;-83
2023/09/10 10:09:22;;;;;;;;;;;;;;;;;;4991820;28;20403;-82
2023/09/10 10:11:47;;;;;;;;;;;;;;;;;;4994105;28;19996;-83
2023/09/10 10:14:15;;;;;;;;;;;;;;;;;;4981199;28;20083;-84
2023/09/10 10:16:44;;;;;;;;;;;;;;;;;;4977184;28;20368;-82
2023/09/10 10:19:09;;;;;;;;;;;;;;;;;;5009229;28;20000;-82
2023/09/10 10:21:34;;;;;;;;;;;;;;;;;;5017808;28;19918;-82
2023/09/10 10:24:00;;;;;;;;;;;;;;;;;;4996398;28;19922;-81
2023/09/10 10:29:13;;;;;;;;;;;;;;;;;;4997493;28;20021;-81
2023/09/10 10:31:39;;;;;;;;;;;;;;;;;;5007173;28;20294;-82
2023/09/10 10:34:19;;;;;;;;;;;;;;;;;;4997458;28;19922;-84
2023/09/10 10:36:58;;;;;;;;;;;;;;;;;;5003759;28;19929;-81
2023/09/10 10:39:27;;;;;;;;;;;;;;;;;;4996450;28;19967;-81
2023/09/10 10:41:53;;;;;;;;;;;;;;;;;;5004225;28;19921;-82
2023/09/10 10:44:35;;;;;;;;;;;;;;;;;;4998390;28;20053;-82
2023/09/10 10:47:06;;;;;;;;;;;;;;;;;;4993378;28;20016;-82
2023/09/10 10:49:32;;;;;;;;;;;;;;;;;;5007365;28;19921;-82
2023/09/10 10:51:59;;;;;;;;;;;;;;;;;;5016000;28;20365;-84
2023/09/10 10:54:24;;;;;;;;;;;;;;;;;;5027536;28;19936;-86
2023/09/10 10:56:55;;;;;;;;;;;;;;;;;;5011131;28;19921;-85
2023/09/10 10:59:31;;;;;;;;;;;;;;;;;;4998534;28;20290;-85
2023/09/10 11:02:29;;;;;;;;;;;;;;;;;;5009560;28;19921;-86
2023/09/10 11:04:54;;;;;;;;;;;;;;;;;;4991875;28;19969;-85
2023/09/10 11:07:31;;;;;;;;;;;;;;;;;;5019825;28;19952;-85
2023/09/10 11:10:00;;;;;;;;;;;;;;;;;;4989883;28;19929;-83
2023/09/10 11:12:26;;;;;;;;;;;;;;;;;;4987038;28;19917;-85
2023/09/10 11:15:00;;;;;;;;;;;;;;;;;;4970750;28;19929;-84
2023/09/10 11:17:27;;;;;;;;;;;;;;;;;;4979675;28;20394;-86
2023/09/10 11:19:52;;;;;;;;;;;;;;;;;;4980037;28;19926;-87
2023/09/10 11:22:28;;;;;;;;;;;;;;;;;;4969167;28;20285;-84
2023/09/10 11:25:06;;;;;;;;;;;;;;;;;;4969900;28;19930;-85
2023/09/10 11:27:34;;;;;;;;;;;;;;;;;;4984186;28;19925;-84
2023/09/10 11:30:23;;;;;;;;;;;;;;;;;;4983323;28;19925;-86
2023/09/10 11:32:50;;;;;;;;;;;;;;;;;;4977835;28;20377;-87
2023/09/10 11:35:22;;;;;;;;;;;;;;;;;;4963247;28;19918;-85
2023/09/10 11:37:51;;;;;;;;;;;;;;;;;;5003286;28;19976;-85
2023/09/10 11:40:17;;;;;;;;;;;;;;;;;;4970280;28;19973;-86
2023/09/10 11:42:43;;;;;;;;;;;;;;;;;;5010533;28;20421;-86
2023/09/10 11:45:09;;;;;;;;;;;;;;;;;;4985845;28;19921;-87
2023/09/10 11:47:45;;;;;;;;;;;;;;;;;;4979917;28;20015;-87
2023/09/10 11:50:13;;;;;;;;;;;;;;;;;;4965894;28;19917;-86
2023/09/10 11:52:38;;;;;;;;;;;;;;;;;;4996551;28;19996;-82
2023/09/10 11:55:04;;;;;;;;;;;;;;;;;;4984264;28;20004;-82
2023/09/10 11:57:30;;;;;;;;;;;;;;;;;;5002065;28;19918;-83
2023/09/10 11:59:55;;;;;;;;;;;;;;;;;;4995539;28;19968;-83
2023/09/10 12:02:20;;;;;;;;;;;;;;;;;;5002280;28;20020;-83
2023/09/10 12:04:46;;;;;;;;;;;;;;;;;;5001547;28;19926;-82
2023/09/10 12:07:11;;;;;;;;;;;;;;;;;;4966754;28;19944;-84
2023/09/10 12:09:37;;;;;;;;;;;;;;;;;;5003034;28;20579;-83
2023/09/10 12:12:28;;;;;;;;;;;;;;;;;;5018379;28;19972;-83
2023/09/10 12:14:54;;;;;;;;;;;;;;;;;;5018956;28;19921;-83
2023/09/10 12:17:19;;;;;;;;;;;;;;;;;;5011307;28;19928;-81
2023/09/10 12:19:44;;;;;;;;;;;;;;;;;;5005689;28;19918;-82
2023/09/10 12:22:27;;;;;;;;;;;;;;;;;;5039702;28;20423;-81
2023/09/10 12:24:55;;;;;;;;;;;;;;;;;;5031440;28;19930;-81
2023/09/10 12:27:21;;;;;;;;;;;;;;;;;;5012469;28;20015;-82
2023/09/10 12:29:46;;;;;;;;;;;;;;;;;;5026309;28;19957;-81
2023/09/10 12:32:27;;;;;;;;;;;;;;;;;;5021699;28;19925;-82
2023/09/10 12:34:52;;;;;;;;;;;;;;;;;;5006845;28;19955;-83
2023/09/10 12:37:18;;;;;;;;;;;;;;;;;;4983190;28;19952;-80
2023/09/10 12:39:44;;;;;;;;;;;;;;;;;;5000905;28;19929;-82
2023/09/10 12:42:10;;;;;;;;;;;;;;;;;;5023739;28;20456;-82
2023/09/10 12:44:39;;;;;;;;;;;;;;;;;;5001282;28;25212;-82
2023/09/10 12:47:04;;;;;;;;;;;;;;;;;;5011368;28;19949;-82
2023/09/10 12:49:30;;;;;;;;;;;;;;;;;;4996652;28;20015;-81
2023/09/10 12:51:55;;;;;;;;;;;;;;;;;;5015929;28;19921;-81
2023/09/10 12:54:20;;;;;;;;;;;;;;;;;;5008209;28;19969;-81
2023/09/10 12:56:51;;;;;;;;;;;;;;;;;;5038067;28;19940;-82
2023/09/10 12:59:16;;;;;;;;;;;;;;;;;;5041378;28;19929;-81
2023/09/10 13:01:44;;;;;;;;;;;;;;;;;;5016922;28;19925;-82
2023/09/10 13:04:13;;;;;;;;;;;;;;;;;;5001253;28;19925;-82
2023/09/10 13:06:49;;;;;;;;;;;;;;;;;;;;;
2023/09/10 13:09:15;;;;;;;;;;;;;;;;;;4999233;28;20320;-81
2023/09/10 13:11:40;;;;;;;;;;;;;;;;;;5003366;28;20004;-80
2023/09/10 13:14:07;;;;;;;;;;;;;;;;;;4996069;28;20178;-81
2023/09/10 13:16:33;;;;;;;;;;;;;;;;;;4994897;28;19922;-81
2023/09/10 13:18:58;;;;;;;;;;;;;;;;;;5019151;28;19922;-82
2023/09/10 13:21:26;;;;;;;;;;;;;;;;;;4997843;28;19921;-80
2023/09/10 13:23:51;;;;;;;;;;;;;;;;;;4999203;28;20009;-81
2023/09/10 13:26:17;;;;;;;;;;;;;;;;;;4980209;28;19968;-81
2023/09/10 13:28:42;;;;;;;;;;;;;;;;;;5038369;28;19963;-81
2023/09/10 13:31:17;;;;;;;;;;;;;;;;;;4992794;28;19922;-81
2023/09/10 13:33:43;;;;;;;;;;;;;;;;;;4993665;28;19929;-81
2023/09/10 13:36:10;;;;;;;;;;;;;;;;;;4977868;28;19921;-81
2023/09/10 13:38:35;;;;;;;;;;;;;;;;;;5012240;28;19922;-81
2023/09/10 13:41:01;;;;;;;;;;;;;;;;;;4999117;28;19960;-81
2023/09/10 13:43:26;;;;;;;;;;;;;;;;;;5002663;28;20259;-82
2023/09/10 13:45:59;;;;;;;;;;;;;;;;;;4993746;28;19925;-81
2023/09/10 13:48:24;;;;;;;;;;;;;;;;;;4988814;28;19929;-86
2023/09/10 13:50:50;;;;;;;;;;;;;;;;;;4998067;28;19922;-84
2023/09/10 13:53:24;;;;;;;;;;;;;;;;;;5005611;28;19925;-83
2023/09/10 13:55:49;;;;;;;;;;;;;;;;;;5033519;28;20011;-82
2023/09/10 13:58:15;;;;;;;;;;;;;;;;;;5012819;28;19954;-84
2023/09/10 14:00:41;;;;;;;;;;;;;;;;;;5015279;28;19980;-84
2023/09/10 14:03:06;;;;;;;;;;;;;;;;;;4991291;28;20274;-84
2023/09/10 14:05:32;;;;;;;;;;;;;;;;;;5004385;28;20401;-83
2023/09/10 14:07:57;;;;;;;;;;;;;;;;;;4991132;28;19922;-84
2023/09/10 14:10:22;;;;;;;;;;;;;;;;;;5025552;28;19933;-83
2023/09/10 14:12:48;;;;;;;;;;;;;;;;;;5020567;28;19921;-83
2023/09/10 14:15:13;;;;;;;;;;;;;;;;;;5022612;28;19920;-83
2023/09/10 14:17:39;;;;;;;;;;;;;;;;;;5020835;28;19964;-83
2023/09/10 14:20:04;;;;;;;;;;;;;;;;;;5034166;28;20012;-83
2023/09/10 14:22:30;;;;;;;;;;;;;;;;;;5039632;28;19963;-83
2023/09/10 14:24:55;;;;;;;;;;;;;;;;;;5042409;28;19968;-84
2023/09/10 14:27:21;;;;;;;;;;;;;;;;;;5013783;28;19918;-83
2023/09/10 14:29:46;;;;;;;;;;;;;;;;;;5016169;28;20377;-82
2023/09/10 14:32:11;;;;;;;;;;;;;;;;;;5018774;28;19920;-83
2023/09/10 14:34:39;;;;;;;;;;;;;;;;;;4999805;28;20386;-84
2023/09/10 14:37:04;;;;;;;;;;;;;;;;;;5006388;28;19918;-83
2023/09/10 14:39:30;;;;;;;;;;;;;;;;;;5032639;28;19924;-83
2023/09/10 14:41:55;;;;;;;;;;;;;;;;;;5003799;28;19943;-84
2023/09/10 14:44:20;;;;;;;;;;;;;;;;;;5053698;28;19933;-84
2023/09/10 14:46:46;;;;;;;;;;;;;;;;;;5016448;28;19917;-84
2023/09/10 14:49:11;;;;;;;;;;;;;;;;;;5015115;28;19928;-83
2023/09/10 14:51:36;;;;;;;;;;;;;;;;;;5006466;28;19928;-83
2023/09/10 14:54:02;;;;;;;;;;;;;;;;;;5020416;28;19926;-83
2023/09/10 14:56:27;;;;;;;;;;;;;;;;;;5026895;28;19974;-83
2023/09/10 14:58:53;;;;;;;;;;;;;;;;;;5033365;28;19983;-83
2023/09/10 15:01:20;;;;;;;;;;;;;;;;;;5021374;28;20006;-83
2023/09/10 15:03:45;;;;;;;;;;;;;;;;;;5024852;28;19921;-83
2023/09/10 15:06:16;;;;;;;;;;;;;;;;;;5035073;28;19921;-84
2023/09/10 15:08:41;;;;;;;;;;;;;;;;;;5019121;28;19921;-83
2023/09/10 15:11:07;;;;;;;;;;;;;;;;;;5036081;28;19931;-83
2023/09/10 15:13:32;;;;;;;;;;;;;;;;;;5018142;28;19924;-83
2023/09/10 15:15:57;;;;;;;;;;;;;;;;;;5054737;28;20296;-83
2023/09/10 15:18:23;;;;;;;;;;;;;;;;;;5045366;28;20407;-81
2023/09/10 15:20:51;;;;;;;;;;;;;;;;;;5057338;28;19923;-81
2023/09/10 15:23:16;;;;;;;;;;;;;;;;;;5041733;28;19957;-82
2023/09/10 15:25:45;;;;;;;;;;;;;;;;;;5045557;28;19953;-81
2023/09/10 15:28:16;;;;;;;;;;;;;;;;;;5058966;28;19917;-81
2023/09/10 15:30:41;;;;;;;;;;;;;;;;;;5009606;28;19921;-80
2023/09/10 15:33:07;;;;;;;;;;;;;;;;;;5014495;28;19924;-80
2023/09/10 15:35:35;;;;;;;;;;;;;;;;;;4996102;28;19917;-80
2023/09/10 15:38:00;;;;;;;;;;;;;;;;;;4983710;28;20439;-79
2023/09/10 15:40:25;;;;;;;;;;;;;;;;;;5003237;28;20056;-80
2023/09/10 15:42:51;;;;;;;;;;;;;;;;;;4997984;28;20373;-79
2023/09/10 15:45:16;;;;;;;;;;;;;;;;;;5022170;28;19928;-80
2023/09/10 15:47:42;;;;;;;;;;;;;;;;;;5015605;28;19928;-79
2023/09/10 15:50:08;;;;;;;;;;;;;;;;;;5025163;28;19959;-80
2023/09/10 15:52:33;;;;;;;;;;;;;;;;;;5044562;28;19955;-79
2023/09/10 15:54:58;;;;;;;;;;;;;;;;;;5011523;28;20395;-79
2023/09/10 15:57:26;;;;;;;;;;;;;;;;;;5007900;28;19916;-79
2023/09/10 15:59:52;;;;;;;;;;;;;;;;;;5041414;28;19927;-79
2023/09/10 16:02:27;;;;;;;;;;;;;;;;;;5012758;28;19917;-81
2023/09/10 16:04:53;;;;;;;;;;;;;;;;;;5023756;28;20455;-81
2023/09/10 16:07:18;;;;;;;;;;;;;;;;;;5024868;28;19921;-82
2023/09/10 16:09:43;;;;;;;;;;;;;;;;;;5008837;28;20407;-81
2023/09/10 16:12:12;;;;;;;;;;;;;;;;;;5037528;28;20007;-81
2023/09/10 16:14:39;;;;;;;;;;;;;;;;;;5055210;28;19933;-80
2023/09/10 16:17:05;;;;;;;;;;;;;;;;;;5045741;28;20444;-82
2023/09/10 16:19:36;;;;;;;;;;;;;;;;;;5055396;28;19917;-82
2023/09/10 16:22:03;;;;;;;;;;;;;;;;;;5052264;28;19940;-81
2023/09/10 16:24:28;;;;;;;;;;;;;;;;;;5042631;28;19917;-82
2023/09/10 16:26:56;;;;;;;;;;;;;;;;;;5052286;28;19943;-81
2023/09/10 16:29:21;;;;;;;;;;;;;;;;;;5037849;28;20416;-81
2023/09/10 16:31:47;;;;;;;;;;;;;;;;;;5030174;28;20011;-80
2023/09/10 16:34:12;;;;;;;;;;;;;;;;;;5027252;28;20415;-84
2023/09/10 16:36:37;;;;;;;;;;;;;;;;;;5036305;28;20565;-83
2023/09/10 16:39:05;;;;;;;;;;;;;;;;;;5053308;28;19921;-82
2023/09/10 16:41:32;;;;;;;;;;;;;;;;;;5038387;28;19923;-82
2023/09/10 16:43:58;;;;;;;;;;;;;;;;;;5054770;28;19927;-83
2023/09/10 16:46:23;;;;;;;;;;;;;;;;;;5054512;28;19921;-83
2023/09/10 16:48:51;;;;;;;;;;;;;;;;;;5035927;28;19921;-82